createdAt,value
2023-03-29T00:02:30.216Z,3.83
2023-03-29T00:05:02.101Z,4.90
2023-03-29T00:07:30.045Z,3.00
2023-03-29T00:09:58.955Z,5.67
2023-03-29T00:12:27.031Z,4.83
2023-03-29T00:14:55.360Z,5.27
2023-03-29T00:17:23.119Z,6.00
2023-03-29T00:19:50.963Z,9.23
2023-03-29T00:22:18.602Z,6.03
2023-03-29T00:24:47.754Z,4.57
2023-03-29T00:27:17.404Z,5.17
2023-03-29T00:29:45.395Z,6.83
2023-03-29T00:32:13.151Z,5.40
2023-03-29T00:34:42.644Z,4.33
2023-03-29T00:37:10.658Z,7.10
2023-03-29T00:39:41.999Z,7.50
2023-03-29T00:42:12.824Z,4.40
2023-03-29T00:45:01.004Z,6.20
2023-03-29T00:47:32.201Z,8.60
2023-03-29T00:50:03.752Z,8.53
2023-03-29T00:52:33.112Z,6.07
2023-03-29T00:55:05.237Z,5.47
2023-03-29T00:57:35.045Z,6.97
2023-03-29T01:00:10.002Z,8.37
2023-03-29T01:02:40.760Z,3.77
2023-03-29T01:05:11.361Z,10.63
2023-03-29T01:07:48.190Z,5.87
2023-03-29T01:10:21.461Z,3.77
2023-03-29T01:12:53.563Z,4.97
2023-03-29T01:15:26.560Z,4.37
2023-03-29T01:17:58.006Z,8.97
2023-03-29T01:20:42.288Z,5.03
2023-03-29T01:23:28.356Z,3.37
2023-03-29T01:26:01.994Z,4.20
2023-03-29T01:28:37.069Z,3.33
2023-03-29T01:31:09.489Z,2.93
2023-03-29T01:33:41.564Z,4.13
2023-03-29T01:36:16.480Z,4.13
2023-03-29T01:38:50.058Z,3.40
2023-03-29T01:41:17.819Z,3.47
2023-03-29T01:43:52.395Z,4.43
2023-03-29T01:46:27.757Z,5.83
2023-03-29T01:49:01.596Z,4.43
2023-03-29T01:51:36.367Z,3.70
2023-03-29T01:54:08.582Z,5.20
2023-03-29T01:56:41.134Z,4.17
2023-03-29T01:59:13.825Z,4.03
2023-03-29T02:01:49.326Z,4.77
2023-03-29T02:04:22.011Z,3.63
2023-03-29T02:06:54.191Z,3.80
2023-03-29T02:09:22.239Z,3.33
2023-03-29T02:11:52.428Z,3.80
2023-03-29T02:14:21.446Z,3.50
2023-03-29T02:16:49.963Z,4.00
2023-03-29T02:19:19.161Z,2.63
2023-03-29T02:22:01.521Z,2.80
2023-03-29T02:24:32.291Z,3.27
2023-03-29T02:27:01.233Z,4.77
2023-03-29T02:29:30.605Z,2.50
2023-03-29T02:32:05.057Z,2.67
2023-03-29T02:34:37.602Z,3.43
2023-03-29T02:37:10.316Z,3.33
2023-03-29T02:39:41.110Z,3.47
2023-03-29T02:42:10.469Z,2.67
2023-03-29T02:44:42.581Z,3.97
2023-03-29T02:47:16.612Z,3.27
2023-03-29T02:49:44.568Z,2.03
2023-03-29T02:52:17.384Z,2.93
2023-03-29T02:54:48.498Z,2.57
2023-03-29T02:57:16.266Z,3.23
2023-03-29T02:59:45.309Z,2.23
2023-03-29T03:02:13.606Z,2.33
2023-03-29T03:04:41.446Z,3.10
2023-03-29T03:07:09.383Z,4.23
2023-03-29T03:09:37.348Z,4.83
2023-03-29T03:12:05.235Z,6.40
2023-03-29T03:14:33.235Z,4.07
2023-03-29T03:17:04.713Z,5.30
2023-03-29T03:19:33.818Z,4.43
2023-03-29T03:22:01.591Z,2.90
2023-03-29T03:24:29.335Z,5.53
2023-03-29T03:26:58.232Z,4.30
2023-03-29T03:29:26.087Z,3.67
2023-03-29T03:32:27.135Z,3.40
2023-03-29T03:35:29.969Z,3.07
2023-03-29T03:37:57.926Z,2.77
2023-03-29T03:40:27.870Z,2.53
2023-03-29T03:42:56.085Z,3.27
2023-03-29T03:45:24.754Z,2.90
2023-03-29T03:47:54.062Z,2.10
2023-03-29T03:50:35.178Z,1.90
2023-03-29T03:53:03.391Z,2.47
2023-03-29T03:55:50.110Z,2.10
2023-03-29T03:58:23.393Z,2.30
2023-03-29T04:00:52.024Z,2.10
2023-03-29T04:03:37.638Z,1.80
2023-03-29T04:06:06.469Z,1.50
2023-03-29T04:08:54.047Z,1.67
2023-03-29T04:11:34.966Z,1.60
2023-03-29T04:14:02.733Z,2.00
2023-03-29T04:16:42.385Z,1.10
2023-03-29T04:19:43.480Z,1.30
2023-03-29T04:22:11.141Z,1.80
2023-03-29T04:24:38.998Z,1.60
2023-03-29T04:27:25.121Z,1.30
2023-03-29T04:29:52.936Z,1.43
2023-03-29T04:32:28.820Z,1.10
2023-03-29T04:36:54.701Z,1.10
2023-03-29T04:39:33.925Z,2.10
2023-03-29T04:42:05.155Z,1.57
2023-03-29T04:44:34.953Z,1.33
2023-03-29T04:47:05.767Z,1.90
2023-03-29T04:49:39.152Z,2.20
2023-03-29T04:52:14.696Z,5.67
2023-03-29T04:54:43.714Z,4.63
2023-03-29T04:57:20.346Z,3.13
2023-03-29T05:00:13.704Z,2.60
2023-03-29T05:02:58.800Z,2.50
2023-03-29T05:05:29.198Z,2.83
2023-03-29T05:07:59.753Z,3.50
2023-03-29T05:10:35.115Z,2.57
2023-03-29T05:13:04.044Z,2.73
2023-03-29T05:15:32.719Z,4.97
2023-03-29T05:18:00.847Z,2.33
2023-03-29T05:20:31.571Z,2.90
2023-03-29T05:23:01.803Z,2.33
2023-03-29T05:25:50.080Z,1.70
2023-03-29T05:28:18.441Z,1.50
2023-03-29T05:30:46.525Z,2.77
2023-03-29T05:33:21.250Z,2.63
2023-03-29T05:35:49.033Z,4.03
2023-03-29T05:38:18.058Z,2.03
2023-03-29T05:40:45.781Z,2.33
2023-03-29T05:43:36.296Z,3.57
2023-03-29T05:46:05.881Z,3.33
2023-03-29T05:48:33.575Z,3.73
2023-03-29T05:51:01.528Z,4.00
2023-03-29T05:53:30.647Z,3.87
2023-03-29T05:55:58.711Z,3.50
2023-03-29T05:58:28.985Z,4.13
2023-03-29T06:01:00.547Z,5.33
2023-03-29T06:03:54.308Z,3.27
2023-03-29T06:06:25.440Z,4.97
2023-03-29T06:08:54.922Z,3.93
2023-03-29T06:11:32.867Z,3.67
2023-03-29T06:14:24.879Z,3.07
2023-03-29T06:17:02.688Z,7.33
2023-03-29T06:19:31.951Z,4.30
2023-03-29T06:21:59.732Z,4.60
2023-03-29T06:24:30.962Z,4.53
2023-03-29T06:27:07.362Z,3.20
2023-03-29T06:29:35.122Z,4.00
2023-03-29T06:32:03.332Z,3.60
2023-03-29T06:34:48.848Z,3.27
2023-03-29T06:37:40.577Z,4.10
2023-03-29T06:40:25.989Z,4.67
2023-03-29T06:42:57.857Z,5.40
2023-03-29T06:45:44.668Z,3.47
2023-03-29T06:48:21.370Z,4.13
2023-03-29T06:50:49.319Z,3.97
2023-03-29T06:53:18.091Z,6.63
2023-03-29T06:55:55.779Z,5.10
2023-03-29T06:58:44.953Z,5.67
2023-03-29T07:01:47.900Z,8.33
2023-03-29T07:04:23.508Z,6.70
2023-03-29T07:07:43.857Z,6.03
2023-03-29T07:10:26.254Z,5.07
2023-03-29T07:13:15.561Z,6.50
2023-03-29T07:15:45.027Z,5.43
2023-03-29T07:18:31.587Z,5.30
2023-03-29T07:20:59.398Z,5.97
2023-03-29T07:23:27.100Z,5.73
2023-03-29T07:25:54.732Z,3.63
2023-03-29T07:28:24.357Z,5.30
2023-03-29T07:30:54.990Z,4.77
2023-03-29T07:33:23.473Z,6.20
2023-03-29T07:35:57.512Z,4.80
2023-03-29T07:38:26.140Z,6.10
2023-03-29T07:41:00.476Z,9.53
2023-03-29T07:43:51.897Z,4.87
2023-03-29T07:46:24.950Z,5.13
2023-03-29T07:48:52.754Z,6.50
2023-03-29T07:51:20.912Z,4.40
2023-03-29T07:53:52.437Z,6.33
2023-03-29T07:56:38.722Z,8.13
2023-03-29T07:59:43.010Z,6.07
2023-03-29T08:02:16.304Z,7.00
2023-03-29T08:04:50.245Z,6.93
2023-03-29T08:07:24.465Z,6.93
2023-03-29T08:10:16.395Z,6.90
2023-03-29T08:13:19.554Z,6.80
2023-03-29T08:16:06.814Z,5.73
2023-03-29T08:18:39.440Z,5.63
2023-03-29T08:21:08.282Z,10.27
2023-03-29T08:23:37.101Z,6.13
2023-03-29T08:26:15.950Z,5.50
2023-03-29T08:28:44.122Z,5.87
2023-03-29T08:31:13.769Z,8.43
2023-03-29T08:33:44.474Z,6.70
2023-03-29T08:36:30.752Z,4.30
2023-03-29T08:39:03.412Z,5.57
2023-03-29T08:41:45.701Z,5.67
2023-03-29T08:44:23.373Z,6.43
2023-03-29T08:47:09.648Z,4.90
2023-03-29T08:49:45.405Z,5.60
2023-03-29T08:52:22.061Z,5.90
2023-03-29T08:54:54.048Z,6.43
2023-03-29T08:58:00.974Z,5.80
2023-03-29T09:00:38.131Z,5.77
2023-03-29T09:03:12.643Z,5.13
2023-03-29T09:05:47.451Z,6.07
2023-03-29T09:08:23.537Z,4.63
2023-03-29T09:11:12.566Z,5.20
2023-03-29T09:13:51.449Z,6.20
2023-03-29T09:16:30.138Z,8.23
2023-03-29T09:19:11.427Z,5.43
2023-03-29T09:21:46.629Z,4.77
2023-03-29T09:24:29.860Z,8.30
2023-03-29T09:27:15.340Z,6.20
2023-03-29T09:29:56.656Z,4.77
2023-03-29T09:32:44.059Z,6.17
2023-03-29T09:35:19.177Z,4.87
2023-03-29T09:37:49.879Z,7.27
2023-03-29T09:40:20.131Z,7.20
2023-03-29T09:43:07.910Z,6.33
2023-03-29T09:45:39.284Z,4.77
2023-03-29T09:48:12.531Z,5.93
2023-03-29T09:50:46.489Z,8.33
2023-03-29T09:53:15.261Z,6.53
2023-03-29T09:55:52.025Z,5.93
2023-03-29T09:58:32.804Z,5.57
2023-03-29T10:01:03.106Z,5.30
2023-03-29T10:03:34.883Z,5.27
2023-03-29T10:06:14.847Z,5.10
2023-03-29T10:08:52.697Z,6.10
2023-03-29T10:11:24.198Z,4.27
2023-03-29T10:13:57.200Z,4.13
2023-03-29T10:16:29.434Z,4.97
2023-03-29T10:18:57.453Z,6.03
2023-03-29T10:21:30.282Z,4.30
2023-03-29T10:23:59.595Z,6.37
2023-03-29T10:26:32.840Z,4.87
2023-03-29T10:29:01.898Z,4.63
2023-03-29T10:31:33.140Z,5.60
2023-03-29T10:34:04.950Z,4.70
2023-03-29T10:36:34.310Z,4.03
2023-03-29T10:39:06.254Z,7.10
2023-03-29T10:41:36.727Z,7.03
2023-03-29T10:44:05.015Z,5.03
2023-03-29T10:46:36.244Z,5.27
2023-03-29T10:49:10.321Z,3.70
2023-03-29T10:51:45.729Z,4.50
2023-03-29T10:54:15.805Z,5.17
2023-03-29T10:56:47.980Z,5.23
2023-03-29T10:59:27.346Z,5.67
2023-03-29T11:02:17.688Z,5.57
2023-03-29T11:04:48.624Z,4.07
2023-03-29T11:07:27.228Z,4.93
2023-03-29T11:10:07.911Z,5.03
2023-03-29T11:12:43.579Z,4.80
2023-03-29T11:15:34.255Z,5.57
2023-03-29T11:18:25.148Z,5.43
2023-03-29T11:20:59.114Z,4.30
2023-03-29T11:23:42.120Z,5.70
2023-03-29T11:26:16.644Z,6.03
2023-03-29T11:28:53.014Z,3.87
2023-03-29T11:31:33.031Z,4.47
2023-03-29T11:34:15.470Z,4.50
2023-03-29T11:36:52.744Z,8.53
2023-03-29T11:39:31.432Z,5.13
2023-03-29T11:42:05.343Z,4.57
2023-03-29T11:44:34.362Z,4.27
2023-03-29T11:47:07.315Z,3.37
2023-03-29T11:49:39.483Z,4.60
2023-03-29T11:52:13.896Z,5.30
2023-03-29T11:54:49.409Z,3.53
2023-03-29T11:57:27.296Z,4.03
2023-03-29T12:00:00.048Z,4.20
2023-03-29T12:02:34.598Z,3.83
2023-03-29T12:05:10.870Z,4.00
2023-03-29T12:07:44.786Z,5.37
2023-03-29T12:10:20.784Z,4.97
2023-03-29T12:12:55.945Z,3.73
2023-03-29T12:15:26.297Z,5.40
2023-03-29T12:18:02.324Z,3.80
2023-03-29T12:20:35.095Z,4.67
2023-03-29T12:23:04.384Z,4.30
2023-03-29T12:25:41.901Z,4.83
2023-03-29T12:28:28.444Z,4.03
2023-03-29T12:31:03.777Z,4.57
2023-03-29T12:33:57.941Z,5.47
2023-03-29T12:37:03.480Z,5.63
2023-03-29T12:39:51.583Z,4.23
2023-03-29T12:42:46.183Z,4.47
2023-03-29T12:45:48.321Z,3.40
2023-03-29T12:48:20.257Z,3.63
2023-03-29T12:50:52.392Z,5.07
2023-03-29T12:53:24.216Z,3.93
2023-03-29T12:56:08.533Z,4.37
2023-03-29T12:58:52.590Z,4.90
2023-03-29T13:01:29.509Z,4.60
2023-03-29T13:04:13.712Z,3.60
2023-03-29T13:07:03.951Z,3.87
2023-03-29T13:09:35.617Z,3.47
2023-03-29T13:12:20.888Z,3.13
2023-03-29T13:14:54.472Z,4.77
2023-03-29T13:17:27.893Z,3.33
2023-03-29T13:20:12.416Z,4.90
2023-03-29T13:22:50.616Z,3.27
2023-03-29T13:25:41.277Z,4.67
2023-03-29T13:28:16.680Z,4.30
2023-03-29T13:30:55.656Z,2.47
2023-03-29T13:33:44.121Z,4.03
2023-03-29T13:36:22.549Z,3.53
2023-03-29T13:38:53.252Z,3.90
2023-03-29T13:41:32.468Z,6.27
2023-03-29T13:44:00.300Z,4.07
2023-03-29T13:46:40.926Z,5.10
2023-03-29T13:49:18.174Z,3.90
2023-03-29T13:52:03.681Z,4.97
2023-03-29T13:54:36.572Z,3.67
2023-03-29T13:57:10.841Z,3.27
2023-03-29T13:59:45.886Z,3.13
2023-03-29T14:02:23.003Z,2.70
2023-03-29T14:04:53.442Z,2.67
2023-03-29T14:07:26.173Z,3.60
2023-03-29T14:09:56.378Z,3.67
2023-03-29T14:12:24.526Z,3.50
2023-03-29T14:14:59.205Z,3.57
2023-03-29T14:17:29.176Z,2.83
2023-03-29T14:19:59.582Z,2.40
2023-03-29T14:22:33.416Z,2.13
2023-03-29T14:25:04.673Z,3.07
2023-03-29T14:27:32.816Z,2.53
2023-03-29T14:30:01.070Z,2.20
2023-03-29T14:32:32.418Z,2.60
2023-03-29T14:35:01.826Z,4.00
2023-03-29T14:37:30.766Z,3.23
2023-03-29T14:39:59.744Z,3.27
2023-03-29T14:42:30.099Z,2.67
2023-03-29T14:45:05.376Z,2.20
2023-03-29T14:47:35.070Z,2.30
2023-03-29T14:50:03.943Z,2.53
2023-03-29T14:52:33.010Z,3.43
2023-03-29T14:55:02.289Z,2.03
2023-03-29T14:57:35.228Z,3.23
2023-03-29T15:00:13.433Z,2.07
2023-03-29T15:02:50.947Z,1.90
2023-03-29T15:05:35.604Z,1.70
2023-03-29T15:08:04.196Z,3.67
2023-03-29T15:10:33.790Z,2.30
2023-03-29T15:13:04.242Z,2.20
2023-03-29T15:15:34.589Z,2.07
2023-03-29T15:18:07.013Z,2.53
2023-03-29T15:20:37.544Z,2.27
2023-03-29T15:23:10.659Z,2.00
2023-03-29T15:25:40.210Z,2.33
2023-03-29T15:28:08.028Z,2.40
2023-03-29T15:30:38.976Z,2.33
2023-03-29T15:33:16.366Z,2.33
2023-03-29T15:35:47.237Z,1.80
2023-03-29T15:38:14.943Z,1.93
2023-03-29T15:40:42.789Z,1.63
2023-03-29T15:43:10.754Z,1.77
2023-03-29T15:45:38.381Z,2.20
2023-03-29T15:48:16.312Z,1.70
2023-03-29T15:50:45.080Z,3.20
2023-03-29T15:53:15.645Z,2.50
2023-03-29T15:55:46.244Z,2.60
2023-03-29T15:58:15.953Z,3.00
2023-03-29T16:00:46.540Z,2.97
2023-03-29T16:03:16.816Z,2.83
2023-03-29T16:05:45.467Z,2.73
2023-03-29T16:08:13.831Z,3.27
2023-03-29T16:10:43.772Z,3.37
2023-03-29T16:13:14.247Z,3.80
2023-03-29T16:15:43.589Z,4.47
2023-03-29T16:18:11.261Z,2.97
2023-03-29T16:20:40.580Z,3.23
2023-03-29T16:23:09.453Z,3.20
2023-03-29T16:25:39.812Z,2.90
2023-03-29T16:28:09.049Z,4.13
2023-03-29T16:30:38.426Z,3.53
2023-03-29T16:33:08.428Z,2.43
2023-03-29T16:35:39.813Z,2.67
2023-03-29T16:38:09.959Z,2.63
2023-03-29T16:40:38.339Z,2.30
2023-03-29T16:43:06.185Z,2.60
2023-03-29T16:45:33.989Z,3.77
2023-03-29T16:48:01.743Z,3.07
2023-03-29T16:50:29.417Z,7.70
2023-03-29T16:52:57.048Z,4.97
2023-03-29T16:55:25.976Z,6.27
2023-03-29T16:57:53.850Z,3.40
2023-03-29T17:00:22.211Z,2.70
2023-03-29T17:02:50.601Z,2.70
2023-03-29T17:05:18.774Z,2.60
2023-03-29T17:07:46.953Z,2.63
2023-03-29T17:10:15.503Z,2.40
2023-03-29T17:12:44.451Z,3.43
2023-03-29T17:15:12.206Z,2.47
2023-03-29T17:17:40.119Z,2.17
2023-03-29T17:20:11.800Z,2.23
2023-03-29T17:22:39.593Z,2.23
2023-03-29T17:25:08.723Z,2.30
2023-03-29T17:27:37.406Z,1.50
2023-03-29T17:30:15.901Z,1.40
2023-03-29T17:32:45.692Z,1.50
2023-03-29T17:35:13.706Z,1.70
2023-03-29T17:37:41.905Z,1.60
2023-03-29T17:40:13.580Z,1.63
2023-03-29T17:42:41.270Z,1.73
2023-03-29T17:45:11.093Z,1.80
2023-03-29T17:47:39.312Z,1.60
2023-03-29T17:50:11.103Z,1.37
2023-03-29T17:52:40.444Z,1.20
2023-03-29T17:55:11.119Z,1.60
2023-03-29T17:57:39.301Z,1.30
2023-03-29T18:00:09.281Z,1.20
2023-03-29T18:02:37.050Z,1.10
2023-03-29T18:05:05.369Z,1.17
2023-03-29T18:07:34.324Z,1.40
2023-03-29T18:10:02.348Z,1.40
2023-03-29T18:12:30.328Z,2.10
2023-03-29T18:14:57.949Z,1.47
2023-03-29T18:17:27.295Z,1.40
2023-03-29T18:19:55.262Z,1.40
2023-03-29T18:22:24.040Z,1.27
2023-03-29T18:24:54.849Z,1.53
2023-03-29T18:27:22.467Z,2.27
2023-03-29T18:29:50.070Z,2.50
2023-03-29T18:32:17.832Z,2.70
2023-03-29T18:34:45.553Z,2.10
2023-03-29T18:37:15.076Z,2.40
2023-03-29T18:39:43.030Z,2.57
2023-03-29T18:42:12.795Z,1.93
2023-03-29T18:44:41.113Z,2.10
2023-03-29T18:47:09.552Z,1.73
2023-03-29T18:49:37.615Z,1.83
2023-03-29T18:52:05.790Z,2.07
2023-03-29T18:54:33.446Z,2.37
2023-03-29T18:57:01.417Z,2.57
2023-03-29T18:59:30.573Z,2.43
2023-03-29T19:01:58.171Z,2.40
2023-03-29T19:04:27.198Z,2.43
2023-03-29T19:06:55.598Z,2.30
2023-03-29T19:09:23.444Z,2.13
2023-03-29T19:11:51.085Z,1.50
2023-03-29T19:14:23.421Z,1.63
2023-03-29T19:16:53.391Z,1.80
2023-03-29T19:19:23.770Z,1.43
2023-03-29T19:21:52.818Z,1.83
2023-03-29T19:24:20.811Z,1.60
2023-03-29T19:26:50.002Z,2.27
2023-03-29T19:29:17.596Z,2.63
2023-03-29T19:31:45.401Z,3.30
2023-03-29T19:34:15.585Z,2.97
2023-03-29T19:36:43.173Z,2.87
2023-03-29T19:39:10.890Z,2.60
2023-03-29T19:41:41.342Z,2.57
2023-03-29T19:44:09.474Z,2.50
2023-03-29T19:46:37.120Z,2.43
2023-03-29T19:49:05.647Z,1.90
2023-03-29T19:51:34.912Z,2.27
2023-03-29T19:54:02.650Z,1.93
2023-03-29T19:56:30.333Z,1.50
2023-03-29T19:58:57.974Z,1.77
2023-03-29T20:01:27.267Z,1.90
2023-03-29T20:03:55.000Z,1.60
2023-03-29T20:06:22.712Z,2.43
2023-03-29T20:08:52.832Z,1.93
2023-03-29T20:11:23.827Z,2.00
2023-03-29T20:13:51.597Z,2.60
2023-03-29T20:16:24.291Z,3.10
2023-03-29T20:18:53.967Z,2.97
2023-03-29T20:21:21.707Z,3.03
2023-03-29T20:23:50.748Z,3.83
2023-03-29T20:26:18.830Z,3.70
2023-03-29T20:28:46.701Z,4.00
2023-03-29T20:31:14.355Z,4.20
2023-03-29T20:33:44.348Z,4.77
2023-03-29T20:36:13.148Z,4.73
2023-03-29T20:38:41.010Z,3.67
2023-03-29T20:41:10.860Z,3.50
2023-03-29T20:43:38.548Z,3.20
2023-03-29T20:46:14.325Z,3.07
2023-03-29T20:48:45.921Z,2.87
2023-03-29T20:51:14.195Z,3.73
2023-03-29T20:53:42.922Z,3.27
2023-03-29T20:56:13.095Z,4.03
2023-03-29T20:58:42.220Z,3.97
2023-03-29T21:01:10.036Z,5.40
2023-03-29T21:03:38.047Z,6.80
2023-03-29T21:06:05.982Z,4.97
2023-03-29T21:08:33.630Z,5.03
2023-03-29T21:11:01.326Z,5.03
2023-03-29T21:13:33.765Z,5.57
2023-03-29T21:16:03.429Z,4.50
2023-03-29T21:18:31.152Z,4.43
2023-03-29T21:20:58.764Z,7.10
2023-03-29T21:23:26.377Z,6.13
2023-03-29T21:25:53.991Z,5.17
2023-03-29T21:28:21.602Z,4.83
2023-03-29T21:30:50.868Z,5.87
2023-03-29T21:33:18.482Z,4.70
2023-03-29T21:35:48.673Z,5.10
2023-03-29T21:38:16.554Z,4.37
2023-03-29T21:40:44.387Z,5.53
2023-03-29T21:43:12.008Z,5.37
2023-03-29T21:45:39.647Z,7.33
2023-03-29T21:48:08.701Z,5.47
2023-03-29T21:50:36.400Z,6.33
2023-03-29T21:53:04.021Z,6.13
2023-03-29T21:55:36.102Z,6.10
2023-03-29T21:58:04.083Z,5.60
2023-03-29T22:00:32.057Z,5.63
2023-03-29T22:02:59.811Z,5.60
2023-03-29T22:05:28.868Z,6.43
2023-03-29T22:07:58.690Z,5.60
2023-03-29T22:10:27.290Z,6.43
2023-03-29T22:12:54.939Z,6.17
2023-03-29T22:15:22.575Z,6.73
2023-03-29T22:17:50.501Z,6.23
2023-03-29T22:20:18.871Z,5.37
2023-03-29T22:22:50.840Z,4.90
2023-03-29T22:25:19.351Z,4.87
2023-03-29T22:27:48.654Z,4.13
2023-03-29T22:30:17.187Z,3.97
2023-03-29T22:32:44.880Z,5.67
2023-03-29T22:35:12.778Z,4.67
2023-03-29T22:37:44.365Z,4.90
2023-03-29T22:40:14.636Z,6.10
2023-03-29T22:42:42.312Z,5.83
2023-03-29T22:45:10.971Z,6.53
2023-03-29T22:47:38.710Z,5.40
2023-03-29T22:50:07.581Z,5.47
2023-03-29T22:52:35.293Z,5.03
2023-03-29T22:55:03.080Z,4.63
2023-03-29T22:57:32.200Z,4.27
2023-03-29T22:59:59.823Z,3.73
2023-03-29T23:02:27.544Z,4.40
2023-03-29T23:04:56.335Z,4.50
2023-03-29T23:07:23.957Z,4.40
2023-03-29T23:09:51.834Z,4.87
2023-03-29T23:12:19.466Z,4.37
2023-03-29T23:14:48.422Z,3.37
2023-03-29T23:17:19.342Z,3.87
2023-03-29T23:19:47.902Z,4.50
2023-03-29T23:22:15.740Z,4.00
2023-03-29T23:24:47.254Z,4.27
2023-03-29T23:27:15.447Z,5.23
2023-03-29T23:29:45.266Z,5.07
2023-03-29T23:32:15.707Z,5.30
2023-03-29T23:34:43.460Z,5.70
2023-03-29T23:37:11.255Z,5.17
2023-03-29T23:39:38.926Z,6.70
2023-03-29T23:42:06.693Z,9.97
2023-03-29T23:44:34.305Z,7.40
2023-03-29T23:47:01.954Z,7.23
2023-03-29T23:49:31.813Z,6.37
2023-03-29T23:52:00.268Z,6.57
2023-03-29T23:54:28.993Z,5.33
2023-03-29T23:56:56.650Z,4.70
2023-03-29T23:59:29.853Z,5.13
